createdAt,value
2023-04-02T00:00:06.165Z,101149.16
2023-04-02T00:02:47.959Z,101148.81
2023-04-02T00:05:51.009Z,101156.38
2023-04-02T00:08:22.089Z,101169.06
2023-04-02T00:10:52.222Z,101161.38
2023-04-02T00:13:25.564Z,101159.25
2023-04-02T00:15:58.531Z,101156.69
2023-04-02T00:18:28.496Z,101165.56
2023-04-02T00:21:01.945Z,101165.06
2023-04-02T00:23:31.118Z,101165.78
2023-04-02T00:26:00.129Z,101165.41
2023-04-02T00:28:28.211Z,101163.69
2023-04-02T00:31:00.027Z,101164.56
2023-04-02T00:33:29.237Z,101178.94
2023-04-02T00:35:59.726Z,101188.16
2023-04-02T00:38:28.871Z,101188.41
2023-04-02T00:40:58.282Z,101195.69
2023-04-02T00:43:28.073Z,101204.84
2023-04-02T00:45:58.217Z,101215.88
2023-04-02T00:48:39.179Z,101229.41
2023-04-02T00:51:13.576Z,101235.88
2023-04-02T00:53:43.768Z,101236.72
2023-04-02T00:56:16.913Z,101232.19
2023-04-02T00:58:45.941Z,101237.56
2023-04-02T01:01:19.122Z,101241.44
2023-04-02T01:03:58.348Z,101246.78
2023-04-02T01:06:31.320Z,101240.13
2023-04-02T01:09:18.481Z,101248.03
2023-04-02T01:11:54.132Z,101258.69
2023-04-02T01:14:33.259Z,101259.28
2023-04-02T01:17:06.147Z,101275.25
2023-04-02T01:19:50.549Z,101279.53
2023-04-02T01:22:23.311Z,101287.22
2023-04-02T01:24:51.982Z,101297.59
2023-04-02T01:27:22.050Z,101293.00
2023-04-02T01:29:55.797Z,101302.75
2023-04-02T01:32:25.126Z,101312.38
2023-04-02T01:34:54.349Z,101323.75
2023-04-02T01:37:28.915Z,101324.69
2023-04-02T01:40:05.114Z,101322.97
2023-04-02T01:42:38.384Z,101327.28
2023-04-02T01:45:09.926Z,101330.31
2023-04-02T01:47:39.031Z,101328.09
2023-04-02T01:50:25.438Z,101329.78
2023-04-02T01:52:56.793Z,101330.75
2023-04-02T01:55:31.481Z,101324.75
2023-04-02T01:58:02.160Z,101325.22
2023-04-02T02:00:33.165Z,101325.81
2023-04-02T02:03:02.610Z,101332.69
2023-04-02T02:05:31.978Z,101330.22
2023-04-02T02:08:02.605Z,101342.59
2023-04-02T02:10:34.582Z,101341.28
2023-04-02T02:13:02.935Z,101355.03
2023-04-02T02:15:34.670Z,101353.53
2023-04-02T02:18:05.564Z,101360.81
2023-04-02T02:20:35.735Z,101366.75
2023-04-02T02:23:05.674Z,101376.41
2023-04-02T02:25:36.325Z,101385.06
2023-04-02T02:28:08.929Z,101383.13
2023-04-02T02:30:41.110Z,101388.63
2023-04-02T02:33:16.528Z,101392.13
2023-04-02T02:35:47.968Z,101398.34
2023-04-02T02:38:30.659Z,101408.00
2023-04-02T02:41:06.133Z,101404.47
2023-04-02T02:43:36.541Z,101420.44
2023-04-02T02:46:07.018Z,101422.56
2023-04-02T02:48:37.645Z,101423.19
2023-04-02T02:51:10.388Z,101422.31
2023-04-02T02:53:46.928Z,101428.09
2023-04-02T02:56:15.881Z,101427.25
2023-04-02T02:58:45.978Z,101434.31
2023-04-02T03:01:23.966Z,101440.94
2023-04-02T03:03:55.996Z,101442.44
2023-04-02T03:06:26.392Z,101440.41
2023-04-02T03:09:02.421Z,101440.53
2023-04-02T03:11:38.116Z,101436.84
2023-04-02T03:14:16.147Z,101434.09
2023-04-02T03:16:48.279Z,101427.84
2023-04-02T03:19:25.496Z,101416.06
2023-04-02T03:21:55.438Z,101422.50
2023-04-02T03:24:28.752Z,101417.25
2023-04-02T03:27:00.751Z,101420.75
2023-04-02T03:29:31.292Z,101427.84
2023-04-02T03:32:02.637Z,101435.78
2023-04-02T03:34:34.308Z,101433.97
2023-04-02T03:37:09.622Z,101435.91
2023-04-02T03:39:42.054Z,101431.28
2023-04-02T03:42:14.100Z,101442.13
2023-04-02T03:44:46.777Z,101438.16
2023-04-02T03:47:20.653Z,101443.72
2023-04-02T03:49:51.859Z,101442.03
2023-04-02T03:52:24.158Z,101448.97
2023-04-02T03:54:53.516Z,101445.44
2023-04-02T03:57:26.979Z,101442.75
2023-04-02T03:59:58.345Z,101445.22
2023-04-02T04:02:36.634Z,101449.59
2023-04-02T04:05:06.913Z,101446.94
2023-04-02T04:07:38.003Z,101451.44
2023-04-02T04:10:07.957Z,101445.97
2023-04-02T04:12:37.483Z,101444.00
2023-04-02T04:15:10.144Z,101444.56
2023-04-02T04:17:51.668Z,101449.69
2023-04-02T04:20:26.318Z,101458.56
2023-04-02T04:22:56.301Z,101461.91
2023-04-02T04:25:29.793Z,101466.31
2023-04-02T04:28:07.873Z,101472.41
2023-04-02T04:30:45.642Z,101459.97
2023-04-02T04:33:22.456Z,101453.50
2023-04-02T04:35:55.521Z,101455.25
2023-04-02T04:38:32.886Z,101456.09
2023-04-02T04:41:04.601Z,101453.41
2023-04-02T04:43:39.072Z,101463.16
2023-04-02T04:46:10.436Z,101465.97
2023-04-02T04:48:42.451Z,101473.13
2023-04-02T04:51:18.528Z,101461.91
2023-04-02T04:53:48.654Z,101469.00
2023-04-02T04:56:20.719Z,101470.91
2023-04-02T04:58:55.652Z,101471.16
2023-04-02T05:01:26.512Z,101485.50
2023-04-02T05:04:00.967Z,101477.47
2023-04-02T05:06:39.108Z,101480.38
2023-04-02T05:09:13.424Z,101482.75
2023-04-02T05:11:45.369Z,101486.84
2023-04-02T05:14:19.326Z,101480.41
2023-04-02T05:16:50.419Z,101483.44
2023-04-02T05:19:23.302Z,101483.66
2023-04-02T05:21:55.775Z,101483.84
2023-04-02T05:24:37.788Z,101500.91
2023-04-02T05:27:10.952Z,101498.66
2023-04-02T05:29:42.866Z,101501.66
2023-04-02T05:32:15.068Z,101505.22
2023-04-02T05:34:49.281Z,101517.63
2023-04-02T05:37:21.264Z,101523.00
2023-04-02T05:39:51.826Z,101532.78
2023-04-02T05:42:21.961Z,101523.00
2023-04-02T05:45:08.008Z,101530.81
2023-04-02T05:47:41.288Z,101525.69
2023-04-02T05:53:09.872Z,101535.34
2023-04-02T05:55:42.895Z,101542.31
2023-04-02T05:58:34.552Z,101546.72
2023-04-02T06:01:15.672Z,101550.13
2023-04-02T06:03:48.161Z,101561.53
2023-04-02T06:06:22.137Z,101559.78
2023-04-02T06:08:54.682Z,101564.09
2023-04-02T06:11:25.409Z,101566.66
2023-04-02T06:13:55.125Z,101556.66
2023-04-02T06:16:28.072Z,101569.13
2023-04-02T06:18:56.754Z,101560.00
2023-04-02T06:21:27.082Z,101566.09
2023-04-02T06:24:00.547Z,101570.72
2023-04-02T06:26:33.676Z,101568.06
2023-04-02T06:29:05.920Z,101576.00
2023-04-02T06:31:37.787Z,101578.56
2023-04-02T06:34:12.157Z,101585.53
2023-04-02T06:36:41.406Z,101580.78
2023-04-02T06:39:18.489Z,101586.16
2023-04-02T06:41:47.834Z,101579.06
2023-04-02T06:44:39.293Z,101586.94
2023-04-02T06:47:20.796Z,101586.81
2023-04-02T06:49:52.894Z,101587.44
2023-04-02T06:52:25.314Z,101596.03
2023-04-02T06:54:55.673Z,101599.22
2023-04-02T06:57:24.627Z,101602.44
2023-04-02T06:59:54.203Z,101606.41
2023-04-02T07:02:30.963Z,101611.22
2023-04-02T07:05:03.158Z,101623.22
2023-04-02T07:07:34.098Z,101624.53
2023-04-02T07:10:09.312Z,101618.47
2023-04-02T07:12:37.679Z,101621.34
2023-04-02T07:15:06.424Z,101619.81
2023-04-02T07:17:35.089Z,101626.25
2023-04-02T07:20:03.284Z,101635.22
2023-04-02T07:22:31.537Z,101633.34
2023-04-02T07:25:02.540Z,101625.59
2023-04-02T07:27:32.403Z,101626.84
2023-04-02T07:30:01.069Z,101627.84
2023-04-02T07:32:29.396Z,101621.38
2023-04-02T07:34:57.571Z,101618.94
2023-04-02T07:37:25.606Z,101630.25
2023-04-02T07:39:53.697Z,101633.53
2023-04-02T07:42:22.018Z,101630.56
2023-04-02T07:44:52.122Z,101632.13
2023-04-02T07:47:20.461Z,101632.16
2023-04-02T07:49:48.725Z,101628.50
2023-04-02T07:52:17.189Z,101625.56
2023-04-02T07:54:45.840Z,101630.81
2023-04-02T07:57:14.013Z,101622.97
2023-04-02T07:59:42.640Z,101635.34
2023-04-02T08:02:19.625Z,101635.56
2023-04-02T08:04:48.119Z,101639.69
2023-04-02T08:07:16.551Z,101639.56
2023-04-02T08:09:44.838Z,101639.13
2023-04-02T08:12:14.296Z,101628.31
2023-04-02T08:14:42.312Z,101628.56
2023-04-02T08:17:11.360Z,101619.75
2023-04-02T08:19:53.765Z,101626.06
2023-04-02T08:22:23.026Z,101626.03
2023-04-02T08:24:51.232Z,101635.69
2023-04-02T08:27:19.925Z,101625.56
2023-04-02T08:29:48.154Z,101622.28
2023-04-02T08:32:17.245Z,101620.16
2023-04-02T08:34:47.059Z,101619.25
2023-04-02T08:37:15.881Z,101622.00
2023-04-02T08:39:44.661Z,101619.59
2023-04-02T08:42:20.781Z,101607.34
2023-04-02T08:44:54.756Z,101605.09
2023-04-02T08:47:26.287Z,101611.63
2023-04-02T08:49:59.017Z,101602.94
2023-04-02T08:52:29.093Z,101610.34
2023-04-02T08:54:58.217Z,101615.31
2023-04-02T08:57:37.599Z,101608.47
2023-04-02T09:00:10.759Z,101609.44
2023-04-02T09:02:41.439Z,101599.22
2023-04-02T09:05:17.918Z,101606.50
2023-04-02T09:07:47.038Z,101615.47
2023-04-02T09:10:16.861Z,101619.44
2023-04-02T09:12:47.721Z,101603.31
2023-04-02T09:15:20.613Z,101615.16
2023-04-02T09:17:54.192Z,101610.00
2023-04-02T09:20:26.463Z,101597.88
2023-04-02T09:22:55.603Z,101610.00
2023-04-02T09:25:26.975Z,101595.88
2023-04-02T09:27:56.558Z,101584.31
2023-04-02T09:30:30.281Z,101583.72
2023-04-02T09:33:02.144Z,101576.03
2023-04-02T09:35:32.652Z,101571.97
2023-04-02T09:38:19.059Z,101581.53
2023-04-02T09:40:49.972Z,101576.06
2023-04-02T09:43:19.623Z,101574.41
2023-04-02T09:45:57.628Z,101572.88
2023-04-02T09:48:27.168Z,101569.91
2023-04-02T09:51:07.874Z,101569.16
2023-04-02T09:53:36.890Z,101576.16
2023-04-02T09:56:13.080Z,101567.03
2023-04-02T09:58:42.074Z,101564.81
2023-04-02T10:01:26.077Z,101567.50
2023-04-02T10:03:55.305Z,101563.34
2023-04-02T10:06:26.023Z,101573.91
2023-04-02T10:08:54.675Z,101575.25
2023-04-02T10:11:30.953Z,101572.91
2023-04-02T10:14:08.000Z,101563.88
2023-04-02T10:16:39.043Z,101563.66
2023-04-02T10:19:14.897Z,101555.63
2023-04-02T10:21:45.786Z,101554.66
2023-04-02T10:24:16.508Z,101552.22
2023-04-02T10:26:53.183Z,101545.94
2023-04-02T10:29:28.646Z,101547.06
2023-04-02T10:32:02.454Z,101540.75
2023-04-02T10:34:36.289Z,101540.25
2023-04-02T10:37:14.013Z,101535.13
2023-04-02T10:39:44.318Z,101529.56
2023-04-02T10:42:16.815Z,101539.59
2023-04-02T10:44:51.461Z,101550.66
2023-04-02T10:47:27.490Z,101546.63
2023-04-02T10:50:02.404Z,101543.66
2023-04-02T10:52:36.208Z,101542.91
2023-04-02T10:55:06.625Z,101547.97
2023-04-02T10:57:38.148Z,101544.75
2023-04-02T11:00:10.607Z,101544.28
2023-04-02T11:02:42.768Z,101550.84
2023-04-02T11:05:22.254Z,101545.97
2023-04-02T11:07:56.042Z,101533.00
2023-04-02T11:10:24.651Z,101515.03
2023-04-02T11:12:56.594Z,101536.72
2023-04-02T11:15:25.309Z,101535.59
2023-04-02T11:17:53.719Z,101528.22
2023-04-02T11:20:40.762Z,101532.81
2023-04-02T11:23:13.106Z,101528.94
2023-04-02T11:25:42.616Z,101525.13
2023-04-02T11:28:15.662Z,101524.34
2023-04-02T11:30:44.252Z,101519.09
2023-04-02T11:33:35.894Z,101527.56
2023-04-02T11:36:04.899Z,101532.06
2023-04-02T11:38:56.109Z,101523.22
2023-04-02T11:41:44.642Z,101524.63
2023-04-02T11:44:24.340Z,101522.53
2023-04-02T11:46:52.545Z,101534.69
2023-04-02T11:49:51.028Z,101524.59
2023-04-02T11:52:21.991Z,101534.69
2023-04-02T11:54:58.461Z,101535.13
2023-04-02T11:57:43.048Z,101535.38
2023-04-02T12:00:18.583Z,101534.94
2023-04-02T12:02:54.856Z,101547.84
2023-04-02T12:05:27.408Z,101541.88
2023-04-02T12:08:07.613Z,101547.31
2023-04-02T12:10:52.514Z,101545.84
2023-04-02T12:13:21.225Z,101553.22
2023-04-02T12:15:50.630Z,101553.88
2023-04-02T12:18:21.074Z,101551.31
2023-04-02T12:20:50.966Z,101560.94
2023-04-02T12:23:21.394Z,101558.09
2023-04-02T12:25:57.010Z,101564.31
2023-04-02T12:28:25.504Z,101556.44
2023-04-02T12:31:03.541Z,101565.81
2023-04-02T12:33:33.990Z,101560.00
2023-04-02T12:36:03.642Z,101568.19
2023-04-02T12:38:32.945Z,101566.16
2023-04-02T12:41:03.773Z,101563.16
2023-04-02T12:43:33.329Z,101559.72
2023-04-02T12:46:02.620Z,101561.09
2023-04-02T12:48:31.505Z,101570.28
2023-04-02T12:51:00.446Z,101566.50
2023-04-02T12:53:31.378Z,101567.56
2023-04-02T12:55:59.696Z,101564.16
2023-04-02T12:58:31.002Z,101574.06
2023-04-02T13:01:13.035Z,101569.06
2023-04-02T13:03:41.976Z,101569.25
2023-04-02T13:06:24.625Z,101566.91
2023-04-02T13:08:52.707Z,101574.06
2023-04-02T13:11:21.030Z,101571.00
2023-04-02T13:13:51.388Z,101570.31
2023-04-02T13:16:30.521Z,101562.81
2023-04-02T13:19:12.405Z,101568.25
2023-04-02T13:21:40.445Z,101564.16
2023-04-02T13:24:18.124Z,101567.06
2023-04-02T13:26:48.054Z,101563.16
2023-04-02T13:29:20.738Z,101566.06
2023-04-02T13:31:49.315Z,101552.78
2023-04-02T13:34:18.735Z,101550.75
2023-04-02T13:36:47.832Z,101551.63
2023-04-02T13:39:16.246Z,101551.94
2023-04-02T13:41:45.935Z,101549.53
2023-04-02T13:44:19.799Z,101552.25
2023-04-02T13:46:49.447Z,101542.31
2023-04-02T13:49:17.624Z,101556.38
2023-04-02T13:51:47.469Z,101549.72
2023-04-02T13:54:20.006Z,101550.44
2023-04-02T13:56:48.234Z,101541.94
2023-04-02T13:59:16.464Z,101539.94
2023-04-02T14:01:46.054Z,101552.16
2023-04-02T14:04:18.923Z,101541.63
2023-04-02T14:07:08.159Z,101535.91
2023-04-02T14:09:41.665Z,101531.84
2023-04-02T14:12:12.940Z,101542.28
2023-04-02T14:14:59.546Z,101540.13
2023-04-02T14:17:36.219Z,101545.81
2023-04-02T14:20:12.174Z,101528.13
2023-04-02T14:22:50.835Z,101527.56
2023-04-02T14:25:26.247Z,101532.19
2023-04-02T14:27:58.164Z,101542.56
2023-04-02T14:30:28.652Z,101531.09
2023-04-02T14:33:01.532Z,101529.09
2023-04-02T14:35:35.347Z,101529.66
2023-04-02T14:38:10.694Z,101526.00
2023-04-02T14:40:42.290Z,101530.97
2023-04-02T14:43:13.465Z,101525.75
2023-04-02T14:45:46.418Z,101524.97
2023-04-02T14:48:22.737Z,101525.63
2023-04-02T14:50:53.092Z,101524.38
2023-04-02T14:53:24.504Z,101524.00
2023-04-02T14:55:54.296Z,101520.13
2023-04-02T14:58:24.584Z,101524.25
2023-04-02T15:00:55.333Z,101526.66
2023-04-02T15:03:25.226Z,101518.06
2023-04-02T15:05:57.523Z,101522.75
2023-04-02T15:08:27.574Z,101518.69
2023-04-02T15:11:00.958Z,101524.06
2023-04-02T15:13:34.593Z,101515.97
2023-04-02T15:16:09.584Z,101512.38
2023-04-02T15:18:39.420Z,101505.69
2023-04-02T15:21:20.448Z,101505.00
2023-04-02T15:23:55.008Z,101507.44
2023-04-02T15:26:27.223Z,101510.88
2023-04-02T15:29:02.760Z,101506.63
2023-04-02T15:31:31.281Z,101503.41
2023-04-02T15:34:12.655Z,101507.53
2023-04-02T15:36:50.834Z,101501.34
2023-04-02T15:39:30.817Z,101499.75
2023-04-02T15:42:04.425Z,101498.78
2023-04-02T15:44:33.253Z,101503.53
2023-04-02T15:47:04.655Z,101492.34
2023-04-02T15:49:41.202Z,101491.78
2023-04-02T15:52:12.069Z,101491.25
2023-04-02T15:54:58.135Z,101487.84
2023-04-02T15:57:34.283Z,101494.69
2023-04-02T16:00:22.591Z,101482.97
2023-04-02T16:03:07.568Z,101488.22
2023-04-02T16:05:40.072Z,101481.44
2023-04-02T16:08:20.277Z,101488.25
2023-04-02T16:10:48.790Z,101481.50
2023-04-02T16:13:20.089Z,101480.47
2023-04-02T16:15:52.885Z,101479.09
2023-04-02T16:18:30.758Z,101482.47
2023-04-02T16:21:01.663Z,101473.09
2023-04-02T16:23:35.450Z,101471.38
2023-04-02T16:26:08.338Z,101465.38
2023-04-02T16:28:41.236Z,101472.00
2023-04-02T16:31:12.040Z,101473.25
2023-04-02T16:33:52.548Z,101473.91
2023-04-02T16:36:29.655Z,101468.28
2023-04-02T16:39:02.871Z,101473.44
2023-04-02T16:41:38.762Z,101469.47
2023-04-02T16:44:13.993Z,101472.53
2023-04-02T16:46:48.403Z,101477.63
2023-04-02T16:49:22.355Z,101470.63
2023-04-02T16:51:56.857Z,101476.88
2023-04-02T16:54:32.373Z,101467.34
2023-04-02T16:57:11.226Z,101470.59
2023-04-02T16:59:46.260Z,101474.03
2023-04-02T17:02:21.786Z,101478.09
2023-04-02T17:04:55.681Z,101474.69
2023-04-02T17:07:29.158Z,101463.66
2023-04-02T17:10:03.614Z,101468.25
2023-04-02T17:12:34.273Z,101480.16
2023-04-02T17:15:07.371Z,101479.97
2023-04-02T17:17:41.676Z,101482.50
2023-04-02T17:20:15.530Z,101475.84
2023-04-02T17:22:44.031Z,101481.28
2023-04-02T17:25:19.726Z,101480.41
2023-04-02T17:27:50.204Z,101485.31
2023-04-02T17:30:20.507Z,101485.69
2023-04-02T17:32:49.643Z,101486.72
2023-04-02T17:35:19.264Z,101493.84
2023-04-02T17:37:52.823Z,101496.91
2023-04-02T17:40:27.552Z,101495.69
2023-04-02T17:43:01.844Z,101496.38
2023-04-02T17:45:34.658Z,101500.66
2023-04-02T17:48:04.413Z,101493.63
2023-04-02T17:50:44.168Z,101493.78
2023-04-02T17:53:20.639Z,101499.69
2023-04-02T17:55:57.632Z,101494.28
2023-04-02T17:58:39.909Z,101496.16
2023-04-02T18:01:14.933Z,101489.00
2023-04-02T18:03:52.401Z,101501.28
2023-04-02T18:06:23.678Z,101506.47
2023-04-02T18:09:04.419Z,101511.53
2023-04-02T18:11:40.174Z,101510.56
2023-04-02T18:14:18.751Z,101504.56
2023-04-02T18:16:50.250Z,101506.91
2023-04-02T18:19:20.794Z,101514.81
2023-04-02T18:21:53.944Z,101512.75
2023-04-02T18:24:29.870Z,101518.69
2023-04-02T18:27:07.878Z,101521.31
2023-04-02T18:29:42.637Z,101524.72
2023-04-02T18:32:27.015Z,101532.88
2023-04-02T18:35:01.906Z,101540.78
2023-04-02T18:37:34.261Z,101540.69
2023-04-02T18:40:16.424Z,101552.94
2023-04-02T18:42:59.622Z,101541.53
2023-04-02T18:45:32.806Z,101542.84
2023-04-02T18:48:07.645Z,101546.84
2023-04-02T18:50:39.357Z,101540.03
2023-04-02T18:53:14.418Z,101550.56
2023-04-02T18:55:47.004Z,101543.72
2023-04-02T18:58:22.247Z,101541.16
2023-04-02T19:00:51.794Z,101535.59
2023-04-02T19:03:25.063Z,101544.13
2023-04-02T19:05:58.128Z,101538.41
2023-04-02T19:08:30.349Z,101546.50
2023-04-02T19:11:00.984Z,101547.03
2023-04-02T19:13:31.559Z,101551.00
2023-04-02T19:16:08.067Z,101549.84
2023-04-02T19:18:42.352Z,101554.66
2023-04-02T19:21:16.062Z,101560.63
2023-04-02T19:23:57.612Z,101555.13
2023-04-02T19:26:31.434Z,101565.28
2023-04-02T19:29:08.152Z,101561.72
2023-04-02T19:31:43.201Z,101568.06
2023-04-02T19:34:19.527Z,101564.56
2023-04-02T19:36:51.486Z,101573.72
2023-04-02T19:39:40.660Z,101573.25
2023-04-02T19:42:13.462Z,101585.50
2023-04-02T19:44:45.650Z,101576.84
2023-04-02T19:47:14.586Z,101579.78
2023-04-02T19:49:43.416Z,101590.97
2023-04-02T19:52:12.617Z,101590.38
2023-04-02T19:54:43.058Z,101598.97
2023-04-02T19:57:15.038Z,101607.03
2023-04-02T19:59:46.695Z,101611.22
2023-04-02T20:02:16.876Z,101617.66
2023-04-02T20:04:48.172Z,101613.97
2023-04-02T20:07:17.310Z,101611.78
2023-04-02T20:09:45.523Z,101615.00
2023-04-02T20:12:13.561Z,101621.63
2023-04-02T20:14:41.746Z,101628.47
2023-04-02T20:17:11.796Z,101626.13
2023-04-02T20:19:39.852Z,101619.66
2023-04-02T20:22:09.053Z,101621.41
2023-04-02T20:24:37.267Z,101617.59
2023-04-02T20:27:05.654Z,101623.50
2023-04-02T20:29:34.007Z,101620.19
2023-04-02T20:32:02.282Z,101627.03
2023-04-02T20:34:32.645Z,101625.56
2023-04-02T20:37:01.180Z,101626.28
2023-04-02T20:39:29.644Z,101633.88
2023-04-02T20:42:01.278Z,101629.72
2023-04-02T20:44:29.822Z,101647.06
2023-04-02T20:46:57.898Z,101644.63
2023-04-02T20:49:26.613Z,101639.50
2023-04-02T20:51:56.525Z,101640.81
2023-04-02T20:54:24.806Z,101641.31
2023-04-02T20:56:53.067Z,101646.06
2023-04-02T20:59:21.152Z,101648.25
2023-04-02T21:01:49.974Z,101645.06
2023-04-02T21:04:18.806Z,101650.03
2023-04-02T21:06:47.364Z,101647.72
2023-04-02T21:09:19.982Z,101642.94
2023-04-02T21:11:48.027Z,101643.50
2023-04-02T21:14:16.886Z,101644.94
2023-04-02T21:16:45.771Z,101648.09
2023-04-02T21:19:13.821Z,101648.53
2023-04-02T21:21:44.273Z,101650.72
2023-04-02T21:24:12.874Z,101654.84
2023-04-02T21:26:42.733Z,101657.13
2023-04-02T21:29:14.016Z,101650.91
2023-04-02T21:31:42.808Z,101650.25
2023-04-02T21:34:14.035Z,101640.59
2023-04-02T21:36:43.392Z,101652.56
2023-04-02T21:39:12.558Z,101654.50
2023-04-02T21:41:44.414Z,101654.19
2023-04-02T21:44:14.574Z,101649.81
2023-04-02T21:46:43.568Z,101648.09
2023-04-02T21:49:12.743Z,101649.94
2023-04-02T21:51:42.246Z,101653.56
2023-04-02T21:54:10.787Z,101641.19
2023-04-02T21:56:40.553Z,101644.00
2023-04-02T21:59:11.636Z,101640.56
2023-04-02T22:01:41.508Z,101633.81
2023-04-02T22:04:10.610Z,101635.97
2023-04-02T22:06:39.688Z,101645.97
2023-04-02T22:09:08.229Z,101643.38
2023-04-02T22:11:37.214Z,101649.84
2023-04-02T22:14:06.307Z,101641.03
2023-04-02T22:16:36.666Z,101642.22
2023-04-02T22:19:06.777Z,101637.19
2023-04-02T22:21:35.371Z,101632.59
2023-04-02T22:24:04.167Z,101623.91
2023-04-02T22:26:32.881Z,101624.97
2023-04-02T22:29:01.453Z,101617.47
2023-04-02T22:31:31.388Z,101615.75
2023-04-02T22:34:01.638Z,101617.81
2023-04-02T22:36:30.466Z,101617.91
2023-04-02T22:38:59.046Z,101606.75
2023-04-02T22:41:28.235Z,101612.97
2023-04-02T22:43:57.197Z,101615.03
2023-04-02T22:46:26.142Z,101622.41
2023-04-02T22:48:55.818Z,101621.56
2023-04-02T22:51:26.088Z,101618.13
2023-04-02T22:53:54.772Z,101612.25
2023-04-02T22:56:23.722Z,101620.50
2023-04-02T22:58:51.893Z,101619.53
2023-04-02T23:01:21.486Z,101629.50
2023-04-02T23:03:50.224Z,101624.16
2023-04-02T23:06:19.697Z,101619.63
2023-04-02T23:08:49.500Z,101628.84
2023-04-02T23:11:18.988Z,101626.28
2023-04-02T23:13:49.059Z,101624.56
2023-04-02T23:16:17.675Z,101620.06
2023-04-02T23:18:48.087Z,101619.41
2023-04-02T23:21:16.394Z,101608.69
2023-04-02T23:23:44.511Z,101606.31
2023-04-02T23:26:15.599Z,101601.81
2023-04-02T23:28:44.547Z,101599.34
2023-04-02T23:31:14.230Z,101609.13
2023-04-02T23:33:42.526Z,101609.34
2023-04-02T23:36:11.476Z,101606.75
2023-04-02T23:38:39.822Z,101599.69
2023-04-02T23:41:08.556Z,101608.69
2023-04-02T23:43:38.047Z,101597.31
2023-04-02T23:46:06.484Z,101609.97
2023-04-02T23:48:34.620Z,101607.38
2023-04-02T23:51:02.726Z,101607.59
2023-04-02T23:53:31.161Z,101606.53
2023-04-02T23:55:59.560Z,101596.66
2023-04-02T23:58:27.729Z,101603.09
